Time;durP1;ratioP1;P1;durP2;ratioP2;P2;SDS_P1;SDS_P2;PMS_P1;PMS_P2;Temp;Humidity;BMP_temperature;BMP_pressure;BME280_temperature;BME280_humidity;BME280_pressure;Samples;Min_cycle;Max_cycle;Signal;HPM_P1;HPM_P2
2022/06/28 00:00:02;;;;;;;6.95;5.28;;;19.50;83.00;;;18.66;100.00;96448.34;4953014;28;20043;-70
2022/06/28 00:02:28;;;;;;;7.13;5.38;;;19.50;83.00;;;18.67;100.00;96461.44;4948084;28;20061;-70
2022/06/28 00:04:54;;;;;;;7.03;5.70;;;19.60;82.90;;;18.70;100.00;96465.50;4946818;28;20043;-70
2022/06/28 00:07:19;;;;;;;7.50;5.43;;;19.60;83.00;;;18.73;100.00;96451.69;4952947;28;20420;-70
2022/06/28 00:09:45;;;;;;;8.00;5.47;;;19.60;83.10;;;18.73;100.00;96453.56;4949295;28;20502;-70
2022/06/28 00:12:11;;;;;;;8.82;5.82;;;19.60;83.00;;;18.71;100.00;96460.97;4969094;28;20035;-70
2022/06/28 00:17:21;;;;;;;6.75;5.68;;;19.50;83.50;;;18.68;100.00;96456.91;4951366;28;20065;-71
2022/06/28 00:19:46;;;;;;;8.50;5.25;;;19.50;83.50;;;18.66;100.00;96448.34;4953947;28;20456;-70
2022/06/28 00:22:12;;;;;;;7.93;5.63;;;19.40;83.30;;;18.66;100.00;96443.00;4952737;28;20038;-70
2022/06/28 00:24:38;;;;;;;6.65;5.88;;;19.60;83.40;;;18.66;100.00;96446.50;4930658;28;20054;-71
2022/06/28 00:27:04;;;;;;;5.97;5.25;;;19.50;83.40;;;18.67;100.00;96439.31;4936575;28;20046;-70
2022/06/28 00:29:30;;;;;;;9.27;5.57;;;19.50;83.50;;;18.68;100.00;96438.25;4969807;28;20035;-71
2022/06/28 00:31:55;;;;;;;6.65;5.53;;;19.60;83.40;;;18.69;100.00;96439.88;4964024;28;20046;-70
2022/06/28 00:34:21;;;;;;;6.95;5.57;;;19.60;83.30;;;18.71;100.00;96444.97;4950663;28;20478;-70
2022/06/28 00:36:47;;;;;;;7.35;5.38;;;19.60;83.00;;;18.71;100.00;96444.97;4949909;28;20035;-70
2022/06/28 00:39:13;;;;;;;8.18;5.55;;;19.60;83.10;;;18.70;100.00;96446.84;4933033;28;20030;-70
2022/06/28 00:41:39;;;;;;;7.07;4.75;;;19.50;82.90;;;18.68;100.00;96451.59;4946655;28;20515;-70
2022/06/28 00:44:04;;;;;;;5.82;4.50;;;19.60;82.90;;;18.69;100.00;96447.88;4967426;28;20043;-69
2022/06/28 00:46:33;;;;;;;8.38;5.38;;;19.60;82.80;;;18.70;100.00;96460.16;4952157;28;20113;-70
2022/06/28 00:49:00;;;;;;;6.70;5.03;;;19.60;82.00;;;18.69;100.00;96458.53;4961098;28;20538;-70
2022/06/28 00:51:26;;;;;;;7.22;5.60;;;19.60;82.30;;;18.67;100.00;96465.97;4954367;28;20102;-69
2022/06/28 00:53:52;;;;;;;6.43;5.15;;;19.50;82.20;;;18.61;100.00;96462.34;4968467;28;20034;-70
2022/06/28 00:56:18;;;;;;;5.50;4.82;;;19.40;82.30;;;18.59;100.00;96468.94;4949700;28;20035;-69
2022/06/28 00:58:44;;;;;;;6.57;5.00;;;19.50;82.50;;;18.56;100.00;96470.22;4944464;28;20458;-69
2022/06/28 01:01:09;;;;;;;7.68;4.95;;;19.40;82.60;;;18.55;100.00;96473.09;4968034;28;20511;-70
2022/06/28 01:03:35;;;;;;;7.30;4.80;;;19.40;82.60;;;18.53;100.00;96480.50;4960814;28;20062;-70
2022/06/28 01:06:01;;;;;;;7.63;4.90;;;19.40;82.60;;;18.50;100.00;96480.94;4949795;28;20077;-70
2022/06/28 01:08:27;;;;;;;6.82;5.05;;;19.40;82.70;;;18.47;100.00;96474.25;4950846;28;20460;-70
2022/06/28 01:10:52;;;;;;;7.32;5.28;;;19.20;82.80;;;18.47;100.00;96492.06;4951004;28;20054;-70
2022/06/28 01:13:18;;;;;;;5.82;4.85;;;19.30;83.00;;;18.45;100.00;96488.81;4959215;28;20062;-70
2022/06/28 01:15:44;;;;;;;7.55;5.82;;;19.20;83.00;;;18.43;100.00;96496.25;4952898;28;20043;-70
2022/06/28 01:18:10;;;;;;;15.82;10.35;;;19.30;83.10;;;18.42;100.00;96497.28;4947924;28;20031;-70
2022/06/28 01:20:36;;;;;;;14.00;9.48;;;19.30;82.80;;;18.41;100.00;96493.00;4936291;28;20037;-70
2022/06/28 01:23:02;;;;;;;14.93;8.30;;;19.30;83.00;;;18.42;100.00;96505.28;4936022;28;20518;-69
2022/06/28 01:25:28;;;;;;;7.00;5.55;;;19.30;83.00;;;18.42;100.00;96499.94;4934213;28;20038;-69
2022/06/28 01:27:54;;;;;;;7.20;5.15;;;19.30;82.90;;;18.41;100.00;96506.31;4962559;28;20039;-70
2022/06/28 01:30:20;;;;;;;8.02;4.90;;;19.30;82.80;;;18.42;100.00;96497.28;4947456;28;20066;-70
2022/06/28 01:32:46;;;;;;;5.90;5.30;;;19.30;82.80;;;18.40;100.00;96512.69;4956503;28;20039;-70
2022/06/28 01:35:12;;;;;;;9.25;5.13;;;19.30;82.70;;;18.39;100.00;96511.06;4949620;28;20042;-70
2022/06/28 01:37:37;;;;;;;7.00;5.05;;;19.30;82.70;;;18.36;100.00;96513.13;4949586;28;20114;-70
2022/06/28 01:40:05;;;;;;;5.72;4.63;;;19.30;82.80;;;18.35;100.00;96532.81;4962855;28;20066;-69
2022/06/28 01:42:30;;;;;;;7.90;5.45;;;19.20;82.90;;;18.35;100.00;96532.00;4905222;28;20094;-70
2022/06/28 01:44:57;;;;;;;7.28;5.22;;;19.20;82.70;;;18.34;100.00;96525.88;4942872;28;20047;-69
2022/06/28 01:47:27;;;;;;;7.45;5.28;;;19.20;82.90;;;18.34;100.00;96530.38;4931014;28;20031;-70
2022/06/28 01:49:53;;;;;;;8.13;5.22;;;19.20;83.00;;;18.36;100.00;96534.44;4931213;28;20566;-70
2022/06/28 01:52:19;;;;;;;9.10;5.57;;;19.20;83.10;;;18.34;100.00;96531.19;4942185;28;20051;-71
2022/06/28 01:54:45;;;;;;;8.70;4.90;;;19.20;83.10;;;18.33;100.00;96540.22;4960250;28;21701;-70
2022/06/28 01:57:11;;;;;;;8.90;5.45;;;19.20;82.90;;;18.32;100.00;96540.44;4935338;28;20062;-71
2022/06/28 01:59:40;;;;;;;7.00;5.13;;;19.20;83.40;;;18.31;100.00;96536.97;4961579;28;20521;-69
2022/06/28 02:02:06;;;;;;;9.10;5.40;;;19.20;83.40;;;18.32;100.00;96540.44;4936037;28;20514;-70
2022/06/28 02:04:32;;;;;;;9.10;5.45;;;19.20;83.20;;;18.32;100.00;96549.22;4966939;28;20035;-70
2022/06/28 02:06:58;;;;;;;7.47;5.68;;;19.20;83.10;;;18.32;100.00;96548.41;4958274;28;20071;-70
2022/06/28 02:09:24;;;;;;;8.23;5.68;;;19.30;82.90;;;18.31;100.00;96546.78;4965048;28;20654;-70
2022/06/28 02:11:50;;;;;;;8.65;5.40;;;19.20;83.00;;;18.30;100.00;96545.16;4946593;28;20097;-70
2022/06/28 02:14:16;;;;;;;7.88;5.70;;;19.20;83.10;;;18.30;100.00;96559.31;4949805;28;20031;-70
2022/06/28 02:16:41;;;;;;;7.68;6.00;;;19.30;83.00;;;18.29;100.00;96555.00;4960690;28;20576;-70
2022/06/28 02:19:07;;;;;;;8.57;5.38;;;19.20;83.20;;;18.29;100.00;96544.38;4943834;28;20590;-70
2022/06/28 02:21:43;;;;;;;11.35;5.80;;;19.20;83.10;;;18.31;100.00;96552.94;4950989;28;20565;-68
2022/06/28 02:24:09;;;;;;;11.35;9.27;;;19.20;83.00;;;18.28;100.00;96547.25;4966197;28;20118;-70
2022/06/28 02:26:35;;;;;;;9.45;6.63;;;19.20;82.80;;;18.28;100.00;96555.25;4950991;28;20035;-70
2022/06/28 02:29:02;;;;;;;7.50;6.28;;;19.20;82.50;;;18.26;100.00;96555.47;4943984;28;20088;-69
2022/06/28 02:31:28;;;;;;;6.75;5.55;;;19.10;82.90;;;18.26;100.00;96555.47;4945791;28;20042;-70
2022/06/28 02:33:54;;;;;;;13.50;11.48;;;19.10;83.10;;;18.26;100.00;96552.00;4945043;28;20031;-70
2022/06/28 02:41:49;;;;;;;9.00;6.50;;;19.20;83.10;;;18.23;100.00;96539.94;4952413;28;20410;-69
2022/06/28 02:44:18;;;;;;;8.95;6.03;;;19.10;83.10;;;18.21;100.00;96536.69;4963580;28;20070;-67
2022/06/28 02:46:45;;;;;;;6.38;5.50;;;19.10;83.00;;;18.18;100.00;96537.16;4965647;28;20053;-65
2022/06/28 02:49:11;;;;;;;7.13;5.50;;;19.10;83.10;;;18.14;100.00;96538.66;4965695;28;20402;-66
2022/06/28 02:51:36;;;;;;;8.50;5.25;;;19.00;83.40;;;18.14;100.00;96536.00;4958307;28;20035;-67
2022/06/28 02:54:02;;;;;;;6.82;4.93;;;19.10;83.50;;;18.11;100.00;96541.78;4942077;28;20728;-67
2022/06/28 02:56:28;;;;;;;7.00;5.55;;;19.10;83.60;;;18.11;100.00;96532.97;4947306;28;20469;-68
2022/06/28 02:58:54;;;;;;;8.48;7.57;;;19.00;83.60;;;18.09;100.00;96538.50;4948596;28;20125;-68
2022/06/28 03:01:19;;;;;;;9.38;6.95;;;19.10;83.60;;;18.07;100.00;96543.22;4966565;28;20035;-68
2022/06/28 03:03:45;;;;;;;8.93;7.40;;;19.00;83.40;;;18.04;100.00;96531.19;4958296;28;20042;-67
2022/06/28 03:06:11;;;;;;;10.35;8.43;;;19.00;83.50;;;18.04;100.00;96533.84;4946042;28;20122;-68
2022/06/28 03:08:36;;;;;;;11.65;10.45;;;19.00;83.50;;;18.05;100.00;96532.00;4954778;28;20053;-69
2022/06/28 03:11:02;;;;;;;31.05;23.92;;;19.00;83.50;;;18.04;100.00;96536.50;4949635;28;20056;-69
2022/06/28 03:13:28;;;;;;;10.88;9.77;;;19.00;83.80;;;18.03;100.00;96534.88;4936770;28;20038;-68
2022/06/28 03:15:54;;;;;;;10.02;6.38;;;19.00;83.80;;;18.02;100.00;96532.44;4922918;28;20039;-68
2022/06/28 03:18:19;;;;;;;7.75;6.15;;;19.00;83.40;;;18.02;100.00;96535.94;4935429;28;20041;-68
2022/06/28 03:20:45;;;;;;;6.72;6.03;;;19.00;83.60;;;18.02;100.00;96543.09;4941615;28;20023;-68
2022/06/28 03:23:11;;;;;;;7.32;6.10;;;19.00;83.40;;;17.99;100.00;96541.72;4948274;28;20118;-68
2022/06/28 03:25:37;;;;;;;7.15;5.80;;;19.00;83.50;;;17.96;100.00;96544.00;4960972;28;20034;-68
2022/06/28 03:28:04;;;;;;;9.45;5.75;;;18.90;83.50;;;17.94;100.00;96540.75;4943408;28;20107;-68
2022/06/28 03:30:31;;;;;;;8.57;5.80;;;18.90;83.60;;;17.93;100.00;96534.63;4954009;28;20089;-68
2022/06/28 03:32:57;;;;;;;7.30;5.70;;;18.90;83.50;;;17.91;100.00;96541.22;4967641;28;20042;-68
2022/06/28 03:35:22;;;;;;;9.98;6.78;;;18.90;83.80;;;17.90;100.00;96534.25;4949655;28;20127;-68
2022/06/28 03:37:48;;;;;;;10.18;8.27;;;18.90;83.70;;;17.87;100.00;96534.69;4940670;28;20035;-68
2022/06/28 03:40:14;;;;;;;14.20;12.07;;;18.80;83.60;;;17.85;100.00;96536.75;4937520;28;20062;-68
2022/06/28 03:42:40;;;;;;;13.63;7.45;;;18.80;83.90;;;17.85;100.00;96542.91;4968108;28;20039;-68
2022/06/28 03:45:06;;;;;;;7.47;6.63;;;18.80;83.90;;;17.82;100.00;96542.53;4953559;28;20153;-67
2022/06/28 03:47:32;;;;;;;10.32;6.78;;;18.80;83.90;;;17.82;100.00;96543.34;4950895;28;20035;-70
2022/06/28 03:49:58;;;;;;;6.72;6.03;;;18.80;83.90;;;17.80;100.00;96544.59;4952692;28;20035;-68
2022/06/28 03:52:28;;;;;;;7.53;5.85;;;18.80;84.10;;;17.82;100.00;96545.19;4941041;28;20169;-69
2022/06/28 03:54:58;;;;;;;;;;;18.80;84.10;;;17.82;100.00;96542.53;4982288;28;20110;-69
2022/06/28 03:57:25;;;;;;;7.65;5.97;;;18.90;83.80;;;17.80;100.00;96542.75;4990968;28;19914;-68
2022/06/28 03:59:50;;;;;;;10.75;6.60;;;18.90;83.90;;;17.83;100.00;96542.31;4976813;28;20041;-68
2022/06/28 04:02:16;;;;;;;7.28;6.30;;;18.90;83.70;;;17.86;100.00;96541.03;4955579;28;20034;-69
2022/06/28 04:04:42;;;;;;;8.30;6.35;;;19.00;83.40;;;17.87;100.00;96534.69;4968391;28;20039;-69
2022/06/28 04:07:08;;;;;;;7.53;6.20;;;19.00;83.50;;;17.87;100.00;96540.00;4971230;28;20031;-69
2022/06/28 04:09:33;;;;;;;8.30;6.70;;;19.00;83.40;;;17.89;100.00;96537.97;4955020;28;20031;-68
2022/06/28 04:11:59;;;;;;;8.02;6.53;;;19.00;83.20;;;17.87;100.00;96540.00;4954793;28;20526;-68
2022/06/28 04:14:25;;;;;;;7.93;6.60;;;18.90;83.40;;;17.88;100.00;96538.97;4955081;28;20569;-70
2022/06/28 04:16:50;;;;;;;7.95;6.72;;;19.00;83.50;;;17.87;100.00;96530.19;4954204;28;20387;-69
2022/06/28 04:19:16;;;;;;;10.38;6.97;;;19.00;83.40;;;17.89;100.00;96529.97;4953293;28;20395;-69
2022/06/28 04:21:42;;;;;;;9.00;6.80;;;18.90;83.40;;;17.88;100.00;96541.63;4951576;28;20474;-69
2022/06/28 04:24:08;;;;;;;7.25;6.15;;;19.00;83.40;;;17.87;100.00;96543.47;4970925;28;20043;-69
2022/06/28 04:26:33;;;;;;;8.35;6.22;;;19.00;83.30;;;17.89;100.00;96537.97;4954324;28;20113;-69
2022/06/28 04:28:59;;;;;;;9.57;6.60;;;19.10;83.30;;;17.90;100.00;96540.41;4970682;28;20169;-69
2022/06/28 04:31:25;;;;;;;8.73;6.15;;;19.00;82.90;;;17.88;100.00;96545.13;4971099;28;20058;-68
2022/06/28 04:33:51;;;;;;;6.32;5.72;;;19.00;83.10;;;17.89;100.00;96545.94;4964039;28;20039;-69
2022/06/28 04:36:16;;;;;;;10.73;6.65;;;19.00;83.20;;;17.93;100.00;96539.13;4959973;28;20086;-68
2022/06/28 04:38:42;;;;;;;8.43;6.25;;;19.10;83.00;;;17.93;100.00;96547.13;4953829;28;20035;-68
2022/06/28 04:41:08;;;;;;;8.00;6.10;;;19.10;82.70;;;17.95;100.00;96547.72;4970641;28;20042;-69
2022/06/28 04:43:34;;;;;;;10.63;6.38;;;19.10;83.20;;;17.96;100.00;96547.47;4938566;28;20050;-68
2022/06/28 04:45:59;;;;;;;9.55;7.90;;;19.20;82.80;;;17.99;100.00;96548.88;4970407;28;20039;-68
2022/06/28 04:48:25;;;;;;;19.75;10.07;;;19.20;82.70;;;18.02;100.00;96551.09;4952157;28;20483;-68
2022/06/28 04:50:51;;;;;;;13.55;7.82;;;19.20;82.70;;;18.04;100.00;96547.16;4969870;28;20050;-68
2022/06/28 04:53:17;;;;;;;8.80;7.32;;;19.30;82.60;;;18.10;100.00;96557.94;4954428;28;20034;-68
2022/06/28 04:55:42;;;;;;;7.30;6.20;;;19.30;82.40;;;18.14;100.00;96549.31;4954365;28;20031;-68
2022/06/28 04:58:08;;;;;;;7.78;6.75;;;19.40;82.00;;;18.17;100.00;96548.84;4969838;28;20517;-68
2022/06/28 05:00:34;;;;;;;7.60;6.75;;;19.50;81.70;;;18.21;100.00;96552.69;4973006;28;20137;-68
2022/06/28 05:02:59;;;;;;;8.68;6.68;;;19.50;81.90;;;18.27;100.00;96550.97;4958758;28;20113;-68
2022/06/28 05:05:25;;;;;;;7.55;6.57;;;19.60;81.70;;;18.33;100.00;96556.22;4970281;28;20030;-69
2022/06/28 05:07:51;;;;;;;8.98;6.55;;;19.60;81.10;;;18.40;100.00;96550.78;4953835;28;20038;-68
2022/06/28 05:10:17;;;;;;;7.57;6.78;;;19.70;80.70;;;18.44;100.00;96548.47;4954170;28;20059;-68
2022/06/28 05:12:43;;;;;;;9.05;6.50;;;19.70;80.70;;;18.49;100.00;96537.94;4953780;28;20045;-68
2022/06/28 05:15:09;;;;;;;8.80;6.72;;;19.80;81.10;;;18.57;100.00;96537.63;4970242;28;20103;-69
2022/06/28 05:17:35;;;;;;;8.70;6.38;;;20.00;81.40;;;18.61;100.00;96530.81;4945079;28;20035;-68
2022/06/28 05:20:02;;;;;;;7.60;6.10;;;20.00;80.50;;;18.67;100.00;96535.25;4965050;28;20042;-68
2022/06/28 05:22:28;;;;;;;8.85;6.45;;;20.10;80.70;;;18.72;100.00;96527.38;4921141;28;20034;-69
2022/06/28 05:24:54;;;;;;;9.05;5.88;;;20.10;80.30;;;18.76;100.00;96533.84;4969659;28;20085;-69
2022/06/28 05:27:20;;;;;;;8.23;6.40;;;20.00;79.60;;;18.80;100.00;96519.03;4953673;28;20586;-68
2022/06/28 05:29:46;;;;;;;8.55;6.35;;;20.10;80.00;;;18.85;100.00;96527.16;4969596;28;20046;-68
2022/06/28 05:32:12;;;;;;;7.88;5.78;;;20.20;80.00;;;18.90;100.00;96523.78;4952841;28;20019;-68
2022/06/28 05:34:38;;;;;;;6.43;5.63;;;20.20;79.10;;;18.95;100.00;96508.72;4942592;28;20397;-68
2022/06/28 05:37:04;;;;;;;6.65;5.90;;;20.40;79.20;;;19.02;100.00;96483.81;4950393;28;20510;-68
2022/06/28 05:39:31;;;;;;;6.97;5.93;;;20.40;78.90;;;19.04;100.00;96482.53;4934573;29;20081;-68
2022/06/28 05:41:57;;;;;;;6.60;5.75;;;20.40;77.50;;;19.09;100.00;96495.16;4950316;28;20039;-68
2022/06/28 05:44:22;;;;;;;7.40;5.70;;;20.60;77.10;;;19.15;100.00;96488.91;4950649;28;20050;-68
2022/06/28 05:46:49;;;;;;;7.07;5.55;;;20.60;76.90;;;19.22;100.00;96473.56;4955085;28;20039;-68
2022/06/28 05:49:15;;;;;;;7.35;5.50;;;20.80;77.10;;;19.33;100.00;96475.44;4953494;28;20031;-68
2022/06/28 05:51:41;;;;;;;7.63;5.90;;;20.90;77.00;;;19.41;100.00;96483.06;4953595;28;20392;-68
2022/06/28 05:54:06;;;;;;;8.55;5.63;;;21.00;76.30;;;19.51;100.00;96480.63;4953636;28;20054;-68
2022/06/28 05:56:35;;;;;;;7.65;5.35;;;21.10;75.70;;;19.62;100.00;96483.50;4953050;28;20039;-68
2022/06/28 05:59:01;;;;;;;6.57;5.47;;;21.30;76.40;;;19.70;100.00;96475.97;4969368;28;20082;-68
2022/06/28 06:01:26;;;;;;;5.07;4.57;;;21.40;74.70;;;19.76;100.00;96463.53;4951743;28;20043;-69
2022/06/28 06:03:52;;;;;;;6.22;4.78;;;21.40;74.40;;;19.78;99.43;96453.41;4969313;28;20106;-68
2022/06/28 06:06:18;;;;;;;6.50;4.78;;;21.30;73.00;;;19.82;97.71;96463.38;4953515;28;20094;-69
2022/06/28 06:08:44;;;;;;;8.02;4.78;;;21.40;73.20;;;19.91;99.35;96463.78;4968735;28;20129;-68
2022/06/28 06:11:09;;;;;;;4.88;4.20;;;21.60;74.20;;;20.07;99.89;96455.00;4953328;28;20039;-69
2022/06/28 06:13:35;;;;;;;6.70;4.38;;;22.00;73.70;;;20.20;97.49;96456.59;4969503;28;20039;-68
2022/06/28 06:16:01;;;;;;;5.82;4.40;;;22.00;70.60;;;20.33;96.28;96458.13;4949213;28;20075;-68
2022/06/28 06:18:27;;;;;;;5.57;3.70;;;22.10;70.30;;;20.42;95.82;96446.03;4948539;28;20058;-68
2022/06/28 06:20:52;;;;;;;4.32;3.58;;;22.30;70.30;;;20.56;95.63;96454.53;4962520;28;20535;-68
2022/06/28 06:23:18;;;;;;;4.85;3.78;;;22.50;70.50;;;20.61;93.09;96454.63;4937427;28;20677;-68
2022/06/28 06:25:44;;;;;;;4.80;4.30;;;22.30;69.00;;;20.65;92.73;96469.13;4937256;28;20567;-69
2022/06/28 06:28:10;;;;;;;6.30;3.95;;;22.20;68.30;;;20.67;91.89;96459.78;4937367;28;20475;-68
2022/06/28 06:30:36;;;;;;;5.93;3.70;;;22.30;69.00;;;20.69;91.60;96455.00;4933108;28;20039;-68
2022/06/28 06:33:02;;;;;;;5.07;3.83;;;22.30;68.70;;;20.72;91.26;96443.03;4961641;28;20031;-68
2022/06/28 06:35:28;;;;;;;6.03;3.47;;;22.40;69.70;;;20.80;90.13;96443.41;4950194;28;20087;-69
2022/06/28 06:38:00;;;;;;;4.80;3.60;;;22.60;67.60;;;20.87;91.56;96437.09;4967619;28;20031;-68
2022/06/28 06:40:27;;;;;;;4.03;3.47;;;22.60;69.30;;;20.92;92.47;96439.84;4938703;28;20134;-68
2022/06/28 06:42:52;;;;;;;3.58;3.20;;;22.60;70.90;;;20.96;93.16;96449.78;4952901;28;20039;-68
2022/06/28 06:45:18;;;;;;;5.68;3.90;;;22.60;71.40;;;20.99;91.80;96462.66;4971214;28;20031;-68
2022/06/28 06:47:44;;;;;;;4.13;3.72;;;22.50;69.40;;;20.98;90.53;96465.59;4962362;28;20101;-68
2022/06/28 06:50:10;;;;;;;5.15;3.40;;;22.50;69.60;;;21.03;90.99;96477.16;4937332;28;20495;-68
2022/06/28 06:52:36;;;;;;;7.80;3.00;;;22.60;69.90;;;21.06;90.30;96478.56;4972181;28;20031;-68
2022/06/28 06:55:02;;;;;;;3.85;2.50;;;22.60;68.10;;;21.11;89.56;96459.91;4956328;28;20043;-68
2022/06/28 06:57:28;;;;;;;4.25;3.08;;;22.90;68.40;;;21.12;89.26;96461.53;4972621;28;20042;-68
2022/06/28 06:59:54;;;;;;;4.05;3.15;;;22.80;68.20;;;21.15;89.89;96461.03;4955453;28;20023;-68
2022/06/28 07:02:20;;;;;;;4.32;3.00;;;22.80;69.00;;;21.17;90.76;96452.75;4972407;28;20035;-68
2022/06/28 07:04:46;;;;;;;4.15;3.13;;;22.90;69.90;;;21.21;91.16;96454.69;4956072;28;20065;-68
2022/06/28 07:07:12;;;;;;;4.20;3.35;;;23.20;69.60;;;21.33;90.88;96455.41;4972234;28;20042;-68
2022/06/28 07:09:37;;;;;;;3.90;3.30;;;23.60;67.50;;;21.52;91.25;96444.41;4956295;28;20035;-68
2022/06/28 07:12:04;;;;;;;6.50;2.78;;;24.10;66.60;;;21.73;90.45;96442.75;4972366;28;20038;-68
2022/06/28 07:14:30;;;;;;;7.15;2.60;;;24.50;65.60;;;21.99;90.58;96440.13;4952619;28;20043;-68
2022/06/28 07:16:55;;;;;;;3.88;2.13;;;25.00;64.60;;;22.27;90.37;96431.03;4966619;28;20418;-69
2022/06/28 07:19:21;;;;;;;3.00;2.10;;;25.20;64.70;;;22.53;88.71;96424.00;4955925;28;20035;-68
2022/06/28 07:21:47;;;;;;;2.47;1.90;;;25.60;61.90;;;22.78;88.08;96419.88;4956459;28;20043;-68
2022/06/28 07:24:13;;;;;;;2.33;1.88;;;25.80;61.70;;;23.02;86.49;96425.69;4948200;28;20074;-68
2022/06/28 07:26:39;;;;;;;2.78;1.90;;;25.80;60.50;;;23.18;84.30;96420.16;4971582;28;20130;-68
2022/06/28 07:29:04;;;;;;;2.95;1.83;;;25.90;59.60;;;23.32;83.97;96433.13;4971721;28;20030;-68
2022/06/28 07:31:33;;;;;;;2.50;2.10;;;26.10;58.70;;;23.44;82.13;96441.75;4956035;28;20031;-68
2022/06/28 07:33:59;;;;;;;2.38;2.00;;;26.10;58.00;;;23.49;81.65;96441.75;4971988;28;20046;-68
2022/06/28 07:36:25;;;;;;;3.55;2.15;;;25.80;58.70;;;23.55;80.98;96448.78;4969657;28;20113;-68
2022/06/28 07:38:50;;;;;;;3.35;2.17;;;25.80;59.00;;;23.52;79.44;96446.59;4950819;28;20070;-68
2022/06/28 07:41:16;;;;;;;3.92;2.00;;;25.50;58.80;;;23.45;79.49;96452.22;4965861;28;20416;-68
2022/06/28 07:43:42;;;;;;;2.95;2.10;;;25.20;59.90;;;23.43;78.03;96464.31;4952213;28;20036;-69
2022/06/28 07:46:08;;;;;;;3.78;2.50;;;25.50;58.80;;;23.43;78.10;96469.66;4968666;28;20526;-68
2022/06/28 07:48:34;;;;;;;3.05;2.10;;;25.60;58.80;;;23.43;78.62;96477.72;4935216;28;20680;-68
2022/06/28 07:53:44;;;;;;;3.10;2.13;;;25.30;58.50;;;23.40;77.83;96492.47;4971888;28;20090;-68
2022/06/28 07:56:10;;;;;;;3.92;2.30;;;25.30;59.20;;;23.37;77.04;96500.25;4971511;28;20043;-68
2022/06/28 07:58:39;;;;;;;3.03;1.95;;;25.20;58.70;;;23.34;76.68;96508.84;4928063;28;20039;-68
2022/06/28 08:01:06;;;;;;;3.23;1.83;;;25.30;58.60;;;23.40;76.11;96518.53;4952299;28;20503;-68
2022/06/28 08:03:32;;;;;;;5.13;1.92;;;25.60;57.50;;;23.46;76.09;96522.84;4952171;28;20046;-68
2022/06/28 08:05:58;;;;;;;2.80;2.10;;;25.80;58.00;;;23.59;75.90;96509.00;4936064;28;20093;-69
2022/06/28 08:08:24;;;;;;;5.25;2.13;;;26.10;56.70;;;23.74;76.71;96498.28;4951941;28;20508;-68
2022/06/28 08:10:49;;;;;;;6.90;2.47;;;26.60;56.60;;;23.88;76.10;96495.13;4945108;28;20050;-69
2022/06/28 08:13:16;;;;;;;13.20;4.15;;;26.40;55.80;;;23.96;74.68;96494.63;4952821;28;20402;-69
2022/06/28 08:15:42;;;;;;;5.30;2.75;;;26.30;55.50;;;24.02;74.19;96496.28;4955270;28;20050;-68
2022/06/28 08:18:09;;;;;;;20.50;14.25;;;26.20;55.90;;;24.09;74.51;96489.56;4971046;28;20039;-69
2022/06/28 08:20:34;;;;;;;15.55;8.23;;;26.50;56.90;;;24.18;73.45;96492.53;4954542;28;20034;-69
2022/06/28 08:23:01;;;;;;;19.40;7.60;;;26.40;54.60;;;24.24;72.65;96490.69;4939184;28;20042;-68
2022/06/28 08:25:26;;;;;;;13.40;3.80;;;26.40;54.80;;;24.25;71.48;96487.72;4946331;28;20039;-69
2022/06/28 08:27:52;;;;;;;5.70;2.47;;;26.20;53.80;;;24.25;70.84;96495.78;4970536;28;20037;-68
2022/06/28 08:30:18;;;;;;;4.95;1.98;;;26.10;54.80;;;24.20;70.05;96490.38;4971238;28;20035;-68
2022/06/28 08:32:44;;;;;;;12.85;2.90;;;26.00;53.80;;;24.18;69.86;96481.78;4970640;28;20030;-69
2022/06/28 08:35:09;;;;;;;4.38;2.05;;;26.10;55.10;;;24.23;70.88;96484.50;4970994;28;20479;-68
2022/06/28 08:37:35;;;;;;;5.93;2.38;;;26.60;55.00;;;24.44;70.81;96479.97;4953684;28;20110;-68
2022/06/28 08:40:01;;;;;;;4.38;1.60;;;27.40;52.40;;;24.74;71.72;96471.13;4951380;28;20040;-68
2022/06/28 08:42:28;;;;;;;3.10;1.58;;;28.10;53.40;;;25.08;70.74;96462.47;4969742;28;20054;-68
2022/06/28 08:44:54;;;;;;;2.55;1.52;;;28.60;50.40;;;25.33;69.65;96465.09;4970389;28;20041;-68
2022/06/28 08:47:22;;;;;;;2.05;1.17;;;28.50;49.80;;;25.56;68.49;96461.00;4954680;28;20597;-68
2022/06/28 08:49:56;;;;;;;1.90;1.38;;;28.50;49.20;;;25.80;66.19;96458.50;4970116;28;20419;-68
2022/06/28 08:52:22;;;;;;;2.80;1.38;;;28.90;48.90;;;26.03;66.66;96448.97;4953806;28;20031;-68
2022/06/28 08:54:49;;;;;;;1.85;1.30;;;29.20;47.50;;;26.29;65.44;96441.53;4953962;28;20031;-68
2022/06/28 08:57:17;;;;;;;4.60;1.88;;;29.40;46.50;;;26.51;65.18;96434.63;4951169;28;20050;-68
2022/06/28 08:59:43;;;;;;;2.58;1.20;;;29.60;46.60;;;26.71;64.33;96430.97;4967081;28;20168;-69
2022/06/28 09:02:08;;;;;;;3.88;1.40;;;29.60;46.50;;;26.75;63.21;96415.00;4934438;28;20511;-68
2022/06/28 09:04:34;;;;;;;1.80;1.20;;;29.20;46.60;;;26.85;63.28;96407.59;4934092;28;20063;-69
2022/06/28 09:07:00;;;;;;;2.40;1.50;;;29.40;47.00;;;26.95;62.66;96411.31;4933922;28;20039;-69
2022/06/28 09:09:26;;;;;;;2.03;1.17;;;29.40;47.10;;;27.03;62.91;96416.09;4970142;28;20528;-68
2022/06/28 09:11:52;;;;;;;2.42;1.65;;;29.50;47.50;;;27.03;61.15;96421.50;4954149;28;20126;-68
2022/06/28 09:14:29;;;;;;;2.13;1.40;;;29.10;46.20;;;26.95;58.89;96422.91;4970271;28;20062;-68
2022/06/28 09:16:56;;;;;;;4.63;1.20;;;28.90;47.40;;;26.84;61.39;96414.09;4936928;28;20046;-69
2022/06/28 09:19:40;;;;;;;4.10;1.35;;;28.80;48.40;;;26.96;60.30;96416.44;4952170;28;20039;-68
2022/06/28 09:22:05;;;;;;;3.20;1.38;;;29.60;47.60;;;27.21;62.10;96412.69;4950767;28;20035;-68
2022/06/28 09:24:32;;;;;;;2.50;1.27;;;30.10;47.20;;;27.40;61.36;96396.53;4903012;28;20046;-69
2022/06/28 09:27:05;;;;;;;2.35;1.10;;;30.10;46.50;;;27.65;59.87;96398.13;4934888;29;20082;-68
2022/06/28 09:29:49;;;;;;;2.25;1.40;;;30.60;45.60;;;28.03;57.48;96402.44;4903365;29;20035;-68
2022/06/28 09:32:15;;;;;;;2.47;1.40;;;31.00;44.10;;;28.15;59.71;96401.22;4949287;28;20089;-69
2022/06/28 09:34:57;;;;;;;2.90;1.58;;;30.80;44.70;;;28.25;56.92;96399.16;4922573;28;20409;-69
2022/06/28 09:37:56;;;;;;;2.35;1.95;;;30.70;43.80;;;28.35;56.02;96387.41;4969980;28;20031;-68
2022/06/28 09:40:26;;;;;;;2.05;1.23;;;31.10;43.30;;;28.53;53.91;96388.47;4970119;28;20130;-68
2022/06/28 09:43:12;;;;;;;2.00;0.98;;;31.40;41.40;;;28.64;53.85;96379.84;4953401;28;20469;-69
2022/06/28 09:45:40;;;;;;;1.33;1.00;;;31.40;42.00;;;28.77;55.59;96377.50;4961191;28;20562;-69
2022/06/28 09:48:07;;;;;;;1.98;1.25;;;31.70;41.80;;;28.90;55.94;96382.13;4966992;28;20047;-68
2022/06/28 09:50:36;;;;;;;2.22;1.45;;;31.80;42.20;;;29.04;54.36;96376.75;4953478;28;20442;-69
2022/06/28 09:53:03;;;;;;;2.15;1.15;;;32.00;42.10;;;29.02;55.19;96371.63;4965872;28;20097;-68
2022/06/28 09:55:31;;;;;;;2.25;1.40;;;31.50;42.20;;;28.95;55.10;96373.91;4968637;28;20030;-69
2022/06/28 09:57:57;;;;;;;2.38;1.25;;;31.10;43.70;;;28.79;54.97;96375.28;4952294;28;20499;-68
2022/06/28 10:00:24;;;;;;;1.55;1.30;;;30.70;43.20;;;28.56;54.75;96371.63;4969304;28;20035;-68
2022/06/28 10:02:51;;;;;;;1.63;1.20;;;30.40;43.70;;;28.42;54.04;96373.47;4969146;28;20037;-69
2022/06/28 10:05:16;;;;;;;1.42;1.08;;;30.50;42.90;;;28.51;53.75;96361.66;4969626;28;20023;-69
2022/06/28 10:07:43;;;;;;;3.70;1.30;;;31.00;41.70;;;28.62;53.00;96357.69;4953371;28;20027;-69
2022/06/28 10:10:10;;;;;;;3.33;1.40;;;31.20;40.50;;;28.79;53.46;96359.03;4969487;28;20035;-69
2022/06/28 10:15:31;;;;;;;3.03;1.20;;;31.90;41.10;;;29.26;51.35;96352.47;4973874;28;20034;-69
2022/06/28 10:18:03;;;;;;;2.53;1.40;;;32.20;39.90;;;29.41;49.77;96352.13;4956754;28;20035;-68
2022/06/28 10:20:34;;;;;;;2.88;1.50;;;32.10;39.30;;;29.51;49.42;96343.84;4972851;28;20518;-69
2022/06/28 10:23:26;;;;;;;2.90;1.55;;;32.20;39.00;;;29.55;48.37;96344.03;4957591;28;20042;-68
2022/06/28 10:26:14;;;;;;;1.38;1.10;;;32.30;38.30;;;29.51;48.84;96329.47;4950578;28;20032;-69